sensor_id;sensor_type;location;lat;lon;timestamp;pressure;altitude;pressure_sealevel;temperature;humidity
32083;BME280;18597;48.328;7.932;2022-10-17T00:02:00;99976.16;;;12.49;100.00
32083;BME280;18597;48.328;7.932;2022-10-17T00:04:26;99984.25;;;12.38;100.00
32083;BME280;18597;48.328;7.932;2022-10-17T00:06:51;99980.59;;;12.39;100.00
32083;BME280;18597;48.328;7.932;2022-10-17T00:09:17;99983.78;;;12.23;100.00
32083;BME280;18597;48.328;7.932;2022-10-17T00:11:43;99983.53;;;12.26;100.00
32083;BME280;18597;48.328;7.932;2022-10-17T00:14:09;99986.06;;;12.28;100.00
32083;BME280;18597;48.328;7.932;2022-10-17T00:16:35;99995.66;;;12.30;100.00
32083;BME280;18597;48.328;7.932;2022-10-17T00:19:04;99985.69;;;12.32;100.00
32083;BME280;18597;48.328;7.932;2022-10-17T00:21:32;100001.28;;;12.27;100.00
32083;BME280;18597;48.328;7.932;2022-10-17T00:23:59;99995.22;;;12.25;100.00
32083;BME280;18597;48.328;7.932;2022-10-17T00:26:26;99992.09;;;12.20;100.00
32083;BME280;18597;48.328;7.932;2022-10-17T00:28:54;99994.97;;;12.07;100.00
32083;BME280;18597;48.328;7.932;2022-10-17T00:31:22;99996.22;;;12.03;100.00
32083;BME280;18597;48.328;7.932;2022-10-17T00:33:49;99995.63;;;12.00;100.00
32083;BME280;18597;48.328;7.932;2022-10-17T00:36:22;100002.16;;;12.07;100.00
32083;BME280;18597;48.328;7.932;2022-10-17T00:38:52;99992.81;;;12.01;100.00
32083;BME280;18597;48.328;7.932;2022-10-17T00:41:22;100009.16;;;11.98;100.00
32083;BME280;18597;48.328;7.932;2022-10-17T00:44:03;100002.94;;;11.98;100.00
32083;BME280;18597;48.328;7.932;2022-10-17T00:46:36;100005.28;;;11.91;100.00
32083;BME280;18597;48.328;7.932;2022-10-17T00:49:08;100000.06;;;11.89;100.00
32083;BME280;18597;48.328;7.932;2022-10-17T00:51:50;100005.47;;;11.99;100.00
32083;BME280;18597;48.328;7.932;2022-10-17T00:54:23;100005.44;;;11.89;100.00
32083;BME280;18597;48.328;7.932;2022-10-17T00:56:51;100003.13;;;11.85;100.00
32083;BME280;18597;48.328;7.932;2022-10-17T00:59:19;100012.63;;;11.89;100.00
32083;BME280;18597;48.328;7.932;2022-10-17T01:01:59;100006.84;;;11.93;100.00
32083;BME280;18597;48.328;7.932;2022-10-17T01:04:27;100016.72;;;11.93;100.00
32083;BME280;18597;48.328;7.932;2022-10-17T01:06:53;100014.50;;;11.98;100.00
32083;BME280;18597;48.328;7.932;2022-10-17T01:09:18;100017.13;;;11.88;100.00
32083;BME280;18597;48.328;7.932;2022-10-17T01:11:57;100012.19;;;11.93;100.00
32083;BME280;18597;48.328;7.932;2022-10-17T01:15:11;100020.50;;;11.90;100.00
32083;BME280;18597;48.328;7.932;2022-10-17T01:18:07;100017.56;;;11.93;100.00
32083;BME280;18597;48.328;7.932;2022-10-17T01:24:23;100024.16;;;11.89;100.00
32083;BME280;18597;48.328;7.932;2022-10-17T01:27:41;100025.28;;;11.87;100.00
32083;BME280;18597;48.328;7.932;2022-10-17T01:30:55;100027.63;;;11.80;100.00
32083;BME280;18597;48.328;7.932;2022-10-17T01:33:55;100023.88;;;11.72;100.00
32083;BME280;18597;48.328;7.932;2022-10-17T01:36:46;100027.00;;;11.77;100.00
32083;BME280;18597;48.328;7.932;2022-10-17T01:39:41;100021.06;;;11.73;100.00
32083;BME280;18597;48.328;7.932;2022-10-17T01:42:25;100019.22;;;11.74;100.00
32083;BME280;18597;48.328;7.932;2022-10-17T01:45:20;100017.41;;;11.74;100.00
32083;BME280;18597;48.328;7.932;2022-10-17T01:47:51;100014.97;;;11.82;100.00
32083;BME280;18597;48.328;7.932;2022-10-17T01:50:26;100009.59;;;11.82;100.00
32083;BME280;18597;48.328;7.932;2022-10-17T01:53:01;100014.72;;;11.74;100.00
32083;BME280;18597;48.328;7.932;2022-10-17T01:55:34;100015.94;;;11.70;100.00
32083;BME280;18597;48.328;7.932;2022-10-17T01:58:09;100008.91;;;11.69;100.00
32083;BME280;18597;48.328;7.932;2022-10-17T02:00:37;100008.66;;;11.72;100.00
32083;BME280;18597;48.328;7.932;2022-10-17T02:03:12;100008.91;;;11.69;100.00
32083;BME280;18597;48.328;7.932;2022-10-17T02:05:40;99999.31;;;11.66;100.00
32083;BME280;18597;48.328;7.932;2022-10-17T02:08:07;100005.50;;;11.67;100.00
32083;BME280;18597;48.328;7.932;2022-10-17T02:10:51;100011.34;;;11.72;100.00
32083;BME280;18597;48.328;7.932;2022-10-17T02:13:44;100013.75;;;11.75;100.00
32083;BME280;18597;48.328;7.932;2022-10-17T02:16:42;100008.22;;;11.56;100.00
32083;BME280;18597;48.328;7.932;2022-10-17T02:19:57;99998.78;;;11.52;100.00
32083;BME280;18597;48.328;7.932;2022-10-17T02:22:50;100009.84;;;11.47;100.00
32083;BME280;18597;48.328;7.932;2022-10-17T02:25:39;100006.94;;;11.50;100.00
32083;BME280;18597;48.328;7.932;2022-10-17T02:28:20;100005.34;;;11.48;100.00
32083;BME280;18597;48.328;7.932;2022-10-17T02:30:57;100000.00;;;11.48;100.00
32083;BME280;18597;48.328;7.932;2022-10-17T02:33:49;100004.63;;;11.46;100.00
32083;BME280;18597;48.328;7.932;2022-10-17T02:36:23;100011.81;;;11.45;100.00
32083;BME280;18597;48.328;7.932;2022-10-17T02:38:52;100008.50;;;11.53;100.00
32083;BME280;18597;48.328;7.932;2022-10-17T02:41:21;100004.69;;;11.34;100.00
32083;BME280;18597;48.328;7.932;2022-10-17T02:43:49;100005.25;;;11.38;100.00
32083;BME280;18597;48.328;7.932;2022-10-17T02:46:19;100002.47;;;11.39;100.00
32083;BME280;18597;48.328;7.932;2022-10-17T02:48:52;100002.94;;;11.45;100.00
32083;BME280;18597;48.328;7.932;2022-10-17T02:54:21;100006.66;;;11.53;100.00
32083;BME280;18597;48.328;7.932;2022-10-17T02:56:56;100009.47;;;11.52;100.00
32083;BME280;18597;48.328;7.932;2022-10-17T02:59:26;100006.53;;;11.55;100.00
32083;BME280;18597;48.328;7.932;2022-10-17T03:01:54;100005.56;;;11.56;100.00
32083;BME280;18597;48.328;7.932;2022-10-17T03:04:19;100007.81;;;11.72;100.00
32083;BME280;18597;48.328;7.932;2022-10-17T03:06:47;100005.97;;;11.72;100.00
32083;BME280;18597;48.328;7.932;2022-10-17T03:09:14;100010.16;;;11.65;100.00
32083;BME280;18597;48.328;7.932;2022-10-17T03:11:40;100006.88;;;11.61;100.00
32083;BME280;18597;48.328;7.932;2022-10-17T03:14:06;100008.22;;;11.56;100.00
32083;BME280;18597;48.328;7.932;2022-10-17T03:16:32;100013.53;;;11.67;100.00
32083;BME280;18597;48.328;7.932;2022-10-17T03:18:58;100018.03;;;11.66;100.00
32083;BME280;18597;48.328;7.932;2022-10-17T03:21:23;100011.38;;;11.61;100.00
32083;BME280;18597;48.328;7.932;2022-10-17T03:23:49;100013.69;;;11.65;100.00
32083;BME280;18597;48.328;7.932;2022-10-17T03:26:15;100018.75;;;11.68;100.00
32083;BME280;18597;48.328;7.932;2022-10-17T03:28:41;100018.19;;;11.65;100.00
32083;BME280;18597;48.328;7.932;2022-10-17T03:31:15;100020.38;;;11.60;100.00
32083;BME280;18597;48.328;7.932;2022-10-17T03:33:41;100020.53;;;11.58;100.00
32083;BME280;18597;48.328;7.932;2022-10-17T03:36:11;100030.63;;;11.55;100.00
32083;BME280;18597;48.328;7.932;2022-10-17T03:38:37;100029.91;;;11.53;100.00
32083;BME280;18597;48.328;7.932;2022-10-17T03:41:05;100027.72;;;11.47;100.00
32083;BME280;18597;48.328;7.932;2022-10-17T03:43:31;100034.53;;;11.51;100.00
32083;BME280;18597;48.328;7.932;2022-10-17T03:45:58;100033.13;;;11.35;100.00
32083;BME280;18597;48.328;7.932;2022-10-17T03:48:25;100027.28;;;11.42;100.00
32083;BME280;18597;48.328;7.932;2022-10-17T03:50:51;100038.75;;;11.21;100.00
32083;BME280;18597;48.328;7.932;2022-10-17T03:53:17;100039.34;;;11.25;100.00
32083;BME280;18597;48.328;7.932;2022-10-17T03:55:43;100039.88;;;11.07;100.00
32083;BME280;18597;48.328;7.932;2022-10-17T03:58:09;100047.94;;;10.96;100.00
32083;BME280;18597;48.328;7.932;2022-10-17T04:00:35;100042.41;;;11.09;100.00
32083;BME280;18597;48.328;7.932;2022-10-17T04:03:01;100049.63;;;10.97;100.00
32083;BME280;18597;48.328;7.932;2022-10-17T04:05:27;100047.66;;;10.99;100.00
32083;BME280;18597;48.328;7.932;2022-10-17T04:07:53;100046.94;;;10.97;100.00
32083;BME280;18597;48.328;7.932;2022-10-17T04:10:19;100054.56;;;11.02;100.00
32083;BME280;18597;48.328;7.932;2022-10-17T04:12:44;100058.34;;;10.99;100.00
32083;BME280;18597;48.328;7.932;2022-10-17T04:15:11;100064.59;;;10.89;100.00
32083;BME280;18597;48.328;7.932;2022-10-17T04:17:36;100062.88;;;10.76;100.00
32083;BME280;18597;48.328;7.932;2022-10-17T04:20:03;100068.69;;;11.04;100.00
32083;BME280;18597;48.328;7.932;2022-10-17T04:22:29;100074.16;;;11.02;100.00
32083;BME280;18597;48.328;7.932;2022-10-17T04:24:54;100069.28;;;11.19;100.00
32083;BME280;18597;48.328;7.932;2022-10-17T04:27:20;100061.34;;;11.28;100.00
32083;BME280;18597;48.328;7.932;2022-10-17T04:29:46;100071.34;;;11.26;100.00
32083;BME280;18597;48.328;7.932;2022-10-17T04:32:12;100070.38;;;11.16;100.00
32083;BME280;18597;48.328;7.932;2022-10-17T04:34:38;100073.91;;;11.05;100.00
32083;BME280;18597;48.328;7.932;2022-10-17T04:37:03;100069.91;;;11.00;100.00
32083;BME280;18597;48.328;7.932;2022-10-17T04:39:29;100087.41;;;10.81;100.00
32083;BME280;18597;48.328;7.932;2022-10-17T04:41:55;100084.13;;;10.89;100.00
32083;BME280;18597;48.328;7.932;2022-10-17T04:44:22;100081.22;;;10.70;100.00
32083;BME280;18597;48.328;7.932;2022-10-17T04:46:47;100081.94;;;10.61;100.00
32083;BME280;18597;48.328;7.932;2022-10-17T04:49:13;100086.09;;;10.76;100.00
32083;BME280;18597;48.328;7.932;2022-10-17T04:51:39;100079.88;;;10.75;100.00
32083;BME280;18597;48.328;7.932;2022-10-17T04:54:05;100083.50;;;10.63;100.00
32083;BME280;18597;48.328;7.932;2022-10-17T04:56:31;100078.88;;;10.65;100.00
32083;BME280;18597;48.328;7.932;2022-10-17T04:58:58;100078.28;;;10.62;100.00
32083;BME280;18597;48.328;7.932;2022-10-17T05:01:25;100084.00;;;10.57;100.00
32083;BME280;18597;48.328;7.932;2022-10-17T05:03:52;100084.50;;;10.84;100.00
32083;BME280;18597;48.328;7.932;2022-10-17T05:06:21;100088.88;;;10.74;100.00
32083;BME280;18597;48.328;7.932;2022-10-17T05:08:48;100085.47;;;10.83;100.00
32083;BME280;18597;48.328;7.932;2022-10-17T05:11:22;100092.75;;;11.04;100.00
32083;BME280;18597;48.328;7.932;2022-10-17T05:13:52;100093.25;;;10.98;100.00
32083;BME280;18597;48.328;7.932;2022-10-17T05:16:18;100089.56;;;11.10;100.00
32083;BME280;18597;48.328;7.932;2022-10-17T05:18:49;100089.34;;;11.02;100.00
32083;BME280;18597;48.328;7.932;2022-10-17T05:21:16;100096.91;;;10.97;100.00
32083;BME280;18597;48.328;7.932;2022-10-17T05:23:42;100097.59;;;10.88;100.00
32083;BME280;18597;48.328;7.932;2022-10-17T05:26:08;100098.22;;;10.91;100.00
32083;BME280;18597;48.328;7.932;2022-10-17T05:28:34;100097.38;;;10.91;100.00
32083;BME280;18597;48.328;7.932;2022-10-17T05:31:04;100095.28;;;10.94;100.00
32083;BME280;18597;48.328;7.932;2022-10-17T05:33:30;100095.44;;;10.93;100.00
32083;BME280;18597;48.328;7.932;2022-10-17T05:35:57;100089.84;;;10.84;100.00
32083;BME280;18597;48.328;7.932;2022-10-17T05:38:23;100092.50;;;10.84;100.00
32083;BME280;18597;48.328;7.932;2022-10-17T05:40:49;100103.22;;;10.84;100.00
32083;BME280;18597;48.328;7.932;2022-10-17T05:43:15;100113.16;;;10.94;100.00
32083;BME280;18597;48.328;7.932;2022-10-17T05:45:41;100096.38;;;11.03;100.00
32083;BME280;18597;48.328;7.932;2022-10-17T05:48:07;100114.03;;;11.05;100.00
32083;BME280;18597;48.328;7.932;2022-10-17T05:50:34;100116.91;;;11.02;100.00
32083;BME280;18597;48.328;7.932;2022-10-17T05:53:00;100113.53;;;10.89;100.00
32083;BME280;18597;48.328;7.932;2022-10-17T05:55:26;100119.38;;;10.83;100.00
32083;BME280;18597;48.328;7.932;2022-10-17T05:57:52;100123.63;;;10.86;100.00
32083;BME280;18597;48.328;7.932;2022-10-17T06:00:19;100123.25;;;11.01;100.00
32083;BME280;18597;48.328;7.932;2022-10-17T06:02:46;100131.16;;;11.14;100.00
32083;BME280;18597;48.328;7.932;2022-10-17T06:05:13;100128.00;;;10.98;100.00
32083;BME280;18597;48.328;7.932;2022-10-17T06:07:39;100139.66;;;10.97;100.00
32083;BME280;18597;48.328;7.932;2022-10-17T06:10:06;100144.78;;;11.11;100.00
32083;BME280;18597;48.328;7.932;2022-10-17T06:12:32;100142.81;;;11.13;100.00
32083;BME280;18597;48.328;7.932;2022-10-17T06:14:58;100140.00;;;11.26;100.00
32083;BME280;18597;48.328;7.932;2022-10-17T06:17:24;100154.25;;;11.26;100.00
32083;BME280;18597;48.328;7.932;2022-10-17T06:19:49;100144.50;;;11.36;100.00
32083;BME280;18597;48.328;7.932;2022-10-17T06:22:15;100162.38;;;11.36;100.00
32083;BME280;18597;48.328;7.932;2022-10-17T06:24:41;100175.38;;;11.52;100.00
32083;BME280;18597;48.328;7.932;2022-10-17T06:27:07;100161.63;;;11.45;100.00
32083;BME280;18597;48.328;7.932;2022-10-17T06:29:33;100162.84;;;11.52;100.00
32083;BME280;18597;48.328;7.932;2022-10-17T06:31:59;100168.28;;;11.73;100.00
32083;BME280;18597;48.328;7.932;2022-10-17T06:34:25;100171.31;;;12.86;100.00
32083;BME280;18597;48.328;7.932;2022-10-17T06:36:52;100158.13;;;14.13;100.00
32083;BME280;18597;48.328;7.932;2022-10-17T06:39:18;100180.63;;;15.54;100.00
32083;BME280;18597;48.328;7.932;2022-10-17T06:41:43;100173.88;;;16.92;100.00
32083;BME280;18597;48.328;7.932;2022-10-17T06:44:10;100166.16;;;18.49;100.00
32083;BME280;18597;48.328;7.932;2022-10-17T06:46:37;100177.81;;;19.54;97.29
32083;BME280;18597;48.328;7.932;2022-10-17T06:49:04;100184.97;;;20.40;85.49
32083;BME280;18597;48.328;7.932;2022-10-17T06:51:34;100167.75;;;21.08;68.12
32083;BME280;18597;48.328;7.932;2022-10-17T06:54:00;100184.13;;;21.15;72.62
32083;BME280;18597;48.328;7.932;2022-10-17T06:56:26;100179.09;;;22.43;70.19
32083;BME280;18597;48.328;7.932;2022-10-17T06:58:52;100179.22;;;23.40;60.34
32083;BME280;18597;48.328;7.932;2022-10-17T07:01:19;100179.19;;;24.29;58.09
32083;BME280;18597;48.328;7.932;2022-10-17T07:03:47;100182.41;;;25.26;49.61
32083;BME280;18597;48.328;7.932;2022-10-17T07:06:14;100185.75;;;24.35;48.53
32083;BME280;18597;48.328;7.932;2022-10-17T07:08:43;100184.97;;;23.17;51.02
32083;BME280;18597;48.328;7.932;2022-10-17T07:11:13;100189.09;;;22.00;55.67
32083;BME280;18597;48.328;7.932;2022-10-17T07:13:40;100183.78;;;20.65;62.09
32083;BME280;18597;48.328;7.932;2022-10-17T07:16:06;100188.50;;;20.48;65.53
32083;BME280;18597;48.328;7.932;2022-10-17T07:18:33;100187.25;;;21.85;57.77
32083;BME280;18597;48.328;7.932;2022-10-17T07:20:59;100183.25;;;21.37;59.86
32083;BME280;18597;48.328;7.932;2022-10-17T07:23:25;100193.81;;;21.17;63.33
32083;BME280;18597;48.328;7.932;2022-10-17T07:25:51;100186.28;;;22.51;56.50
32083;BME280;18597;48.328;7.932;2022-10-17T07:28:17;100187.84;;;22.38;56.94
32083;BME280;18597;48.328;7.932;2022-10-17T07:30:43;100186.47;;;22.49;56.67
32083;BME280;18597;48.328;7.932;2022-10-17T07:33:10;100191.38;;;23.03;57.61
32083;BME280;18597;48.328;7.932;2022-10-17T07:35:37;100193.63;;;24.17;52.85
32083;BME280;18597;48.328;7.932;2022-10-17T07:38:05;100191.38;;;24.27;50.25
32083;BME280;18597;48.328;7.932;2022-10-17T07:40:31;100202.25;;;23.31;53.22
32083;BME280;18597;48.328;7.932;2022-10-17T07:42:57;100204.72;;;21.47;62.10
32083;BME280;18597;48.328;7.932;2022-10-17T07:45:23;100205.66;;;20.18;71.55
32083;BME280;18597;48.328;7.932;2022-10-17T07:47:56;100204.63;;;19.40;80.27
32083;BME280;18597;48.328;7.932;2022-10-17T07:50:22;100210.09;;;19.80;85.26
32083;BME280;18597;48.328;7.932;2022-10-17T07:52:48;100207.25;;;20.04;81.53
32083;BME280;18597;48.328;7.932;2022-10-17T07:55:14;100206.16;;;19.43;82.69
32083;BME280;18597;48.328;7.932;2022-10-17T07:57:40;100209.78;;;19.75;86.69
32083;BME280;18597;48.328;7.932;2022-10-17T08:00:07;100216.72;;;20.08;84.58
32083;BME280;18597;48.328;7.932;2022-10-17T08:02:33;100212.69;;;20.04;80.10
32083;BME280;18597;48.328;7.932;2022-10-17T08:04:59;100215.59;;;19.94;81.48
32083;BME280;18597;48.328;7.932;2022-10-17T08:07:25;100214.72;;;20.02;83.67
32083;BME280;18597;48.328;7.932;2022-10-17T08:09:50;100218.97;;;20.05;83.59
32083;BME280;18597;48.328;7.932;2022-10-17T08:12:17;100213.69;;;19.72;82.63
32083;BME280;18597;48.328;7.932;2022-10-17T08:14:43;100218.91;;;19.10;86.71
32083;BME280;18597;48.328;7.932;2022-10-17T08:17:09;100216.41;;;18.51;92.55
32083;BME280;18597;48.328;7.932;2022-10-17T08:19:38;100228.38;;;18.41;95.14
32083;BME280;18597;48.328;7.932;2022-10-17T08:22:05;100238.34;;;18.32;94.11
32083;BME280;18597;48.328;7.932;2022-10-17T08:24:31;100242.22;;;18.21;96.79
32083;BME280;18597;48.328;7.932;2022-10-17T08:26:57;100249.34;;;18.30;96.51
32083;BME280;18597;48.328;7.932;2022-10-17T08:29:25;100248.31;;;18.32;99.77
32083;BME280;18597;48.328;7.932;2022-10-17T08:31:50;100237.69;;;18.38;100.00
32083;BME280;18597;48.328;7.932;2022-10-17T08:34:17;100235.47;;;18.42;100.00
32083;BME280;18597;48.328;7.932;2022-10-17T08:36:43;100244.13;;;18.37;100.00
32083;BME280;18597;48.328;7.932;2022-10-17T08:39:09;100245.28;;;18.35;100.00
32083;BME280;18597;48.328;7.932;2022-10-17T08:48:01;100238.09;;;18.68;99.83
32083;BME280;18597;48.328;7.932;2022-10-17T08:50:41;100236.41;;;18.75;98.85
32083;BME280;18597;48.328;7.932;2022-10-17T08:53:35;100239.44;;;18.72;99.36
32083;BME280;18597;48.328;7.932;2022-10-17T08:56:29;100237.41;;;18.82;100.00
32083;BME280;18597;48.328;7.932;2022-10-17T08:58:58;100232.84;;;18.91;100.00
32083;BME280;18597;48.328;7.932;2022-10-17T09:04:33;100230.28;;;19.05;100.00
32083;BME280;18597;48.328;7.932;2022-10-17T09:10:54;100236.16;;;19.25;100.00
32083;BME280;18597;48.328;7.932;2022-10-17T09:14:14;100228.81;;;19.42;96.23
32083;BME280;18597;48.328;7.932;2022-10-17T09:19:57;100229.47;;;18.97;96.32
32083;BME280;18597;48.328;7.932;2022-10-17T09:22:29;100232.63;;;19.08;99.77
32083;BME280;18597;48.328;7.932;2022-10-17T09:25:02;100238.53;;;19.36;98.46
32083;BME280;18597;48.328;7.932;2022-10-17T09:27:37;100241.38;;;19.43;99.97
32083;BME280;18597;48.328;7.932;2022-10-17T09:30:43;100242.88;;;19.54;99.70
32083;BME280;18597;48.328;7.932;2022-10-17T09:33:14;100242.50;;;19.73;97.42
32083;BME280;18597;48.328;7.932;2022-10-17T09:35:41;100240.19;;;19.93;94.42
32083;BME280;18597;48.328;7.932;2022-10-17T09:38:16;100242.75;;;20.17;96.22
32083;BME280;18597;48.328;7.932;2022-10-17T09:40:44;100248.97;;;20.34;93.42
32083;BME280;18597;48.328;7.932;2022-10-17T09:43:13;100252.13;;;20.46;90.99
32083;BME280;18597;48.328;7.932;2022-10-17T09:46:06;100244.75;;;20.55;83.51
32083;BME280;18597;48.328;7.932;2022-10-17T09:48:51;100252.06;;;20.54;85.32
32083;BME280;18597;48.328;7.932;2022-10-17T09:51:18;100251.03;;;20.55;87.18
32083;BME280;18597;48.328;7.932;2022-10-17T09:53:50;100247.78;;;20.60;85.52
32083;BME280;18597;48.328;7.932;2022-10-17T09:56:18;100249.13;;;20.64;86.86
32083;BME280;18597;48.328;7.932;2022-10-17T09:58:51;100253.28;;;20.74;89.77
32083;BME280;18597;48.328;7.932;2022-10-17T10:01:29;100253.88;;;20.85;90.62
32083;BME280;18597;48.328;7.932;2022-10-17T10:04:14;100260.56;;;20.97;87.26
32083;BME280;18597;48.328;7.932;2022-10-17T10:07:02;100255.44;;;21.02;89.15
32083;BME280;18597;48.328;7.932;2022-10-17T10:09:32;100250.97;;;21.09;90.23
32083;BME280;18597;48.328;7.932;2022-10-17T10:12:13;100260.31;;;21.21;95.62
32083;BME280;18597;48.328;7.932;2022-10-17T10:14:41;100264.47;;;21.17;91.40
32083;BME280;18597;48.328;7.932;2022-10-17T10:17:36;100267.84;;;21.19;84.29
32083;BME280;18597;48.328;7.932;2022-10-17T10:20:35;100276.38;;;21.16;84.12
32083;BME280;18597;48.328;7.932;2022-10-17T10:23:14;100270.84;;;21.24;84.40
32083;BME280;18597;48.328;7.932;2022-10-17T10:26:01;100270.66;;;21.26;86.52
32083;BME280;18597;48.328;7.932;2022-10-17T10:28:31;100273.88;;;21.29;87.34
32083;BME280;18597;48.328;7.932;2022-10-17T10:31:04;100276.59;;;21.44;87.00
32083;BME280;18597;48.328;7.932;2022-10-17T10:33:32;100273.44;;;21.55;90.64
32083;BME280;18597;48.328;7.932;2022-10-17T10:36:03;100286.09;;;21.63;87.59
32083;BME280;18597;48.328;7.932;2022-10-17T10:38:32;100275.97;;;21.86;88.81
32083;BME280;18597;48.328;7.932;2022-10-17T10:41:05;100269.28;;;22.04;87.33
32083;BME280;18597;48.328;7.932;2022-10-17T10:43:42;100274.34;;;22.22;84.71
32083;BME280;18597;48.328;7.932;2022-10-17T10:46:21;100267.44;;;22.40;81.03
32083;BME280;18597;48.328;7.932;2022-10-17T10:49:03;100270.53;;;22.52;80.39
32083;BME280;18597;48.328;7.932;2022-10-17T10:51:37;100269.41;;;22.68;80.73
32083;BME280;18597;48.328;7.932;2022-10-17T10:54:15;100266.16;;;22.79;83.31
32083;BME280;18597;48.328;7.932;2022-10-17T10:56:46;100264.47;;;22.78;84.05
32083;BME280;18597;48.328;7.932;2022-10-17T11:02:40;100257.88;;;22.87;82.92
32083;BME280;18597;48.328;7.932;2022-10-17T11:05:47;100269.72;;;22.80;83.62
32083;BME280;18597;48.328;7.932;2022-10-17T11:08:42;100269.84;;;22.86;85.06
32083;BME280;18597;48.328;7.932;2022-10-17T11:11:19;100273.25;;;22.95;86.19
32083;BME280;18597;48.328;7.932;2022-10-17T11:14:05;100265.97;;;23.02;85.22
32083;BME280;18597;48.328;7.932;2022-10-17T11:16:43;100269.41;;;23.11;83.82
32083;BME280;18597;48.328;7.932;2022-10-17T11:19:36;100273.28;;;23.23;77.70
32083;BME280;18597;48.328;7.932;2022-10-17T11:22:27;100270.00;;;23.34;80.51
32083;BME280;18597;48.328;7.932;2022-10-17T11:25:02;100272.19;;;23.45;71.00
32083;BME280;18597;48.328;7.932;2022-10-17T11:27:30;100271.41;;;23.51;72.01
32083;BME280;18597;48.328;7.932;2022-10-17T11:29:56;100279.03;;;23.63;70.49
32083;BME280;18597;48.328;7.932;2022-10-17T11:32:45;100278.28;;;23.75;54.93
32083;BME280;18597;48.328;7.932;2022-10-17T11:35:23;100274.34;;;23.85;50.98
32083;BME280;18597;48.328;7.932;2022-10-17T11:38:19;100274.22;;;23.99;53.73
32083;BME280;18597;48.328;7.932;2022-10-17T11:40:51;100280.97;;;24.10;48.96
32083;BME280;18597;48.328;7.932;2022-10-17T11:43:41;100283.13;;;24.21;48.04
32083;BME280;18597;48.328;7.932;2022-10-17T11:46:21;100273.34;;;24.33;50.87
32083;BME280;18597;48.328;7.932;2022-10-17T11:51:25;100277.78;;;24.54;48.81
32083;BME280;18597;48.328;7.932;2022-10-17T11:54:24;100268.16;;;24.58;49.52
32083;BME280;18597;48.328;7.932;2022-10-17T12:00:22;100272.81;;;24.71;48.97
32083;BME280;18597;48.328;7.932;2022-10-17T12:05:58;100275.31;;;24.73;48.82
32083;BME280;18597;48.328;7.932;2022-10-17T12:08:50;100271.75;;;24.79;48.17
32083;BME280;18597;48.328;7.932;2022-10-17T12:11:53;100267.75;;;24.81;47.69
32083;BME280;18597;48.328;7.932;2022-10-17T12:14:42;100271.34;;;24.82;46.24
32083;BME280;18597;48.328;7.932;2022-10-17T12:17:34;100264.00;;;24.89;47.89
32083;BME280;18597;48.328;7.932;2022-10-17T12:20:27;100262.31;;;24.95;47.76
32083;BME280;18597;48.328;7.932;2022-10-17T12:23:19;100263.81;;;25.04;47.82
32083;BME280;18597;48.328;7.932;2022-10-17T12:25:53;100270.75;;;25.06;47.05
32083;BME280;18597;48.328;7.932;2022-10-17T12:28:46;100265.03;;;25.01;46.85
32083;BME280;18597;48.328;7.932;2022-10-17T12:33:54;100265.69;;;24.97;46.69
32083;BME280;18597;48.328;7.932;2022-10-17T12:49:49;100258.75;;;25.27;45.90
32083;BME280;18597;48.328;7.932;2022-10-17T12:52:37;100257.69;;;25.28;46.50
32083;BME280;18597;48.328;7.932;2022-10-17T12:55:16;100255.19;;;25.27;46.59
32083;BME280;18597;48.328;7.932;2022-10-17T12:58:09;100255.19;;;25.27;46.93
32083;BME280;18597;48.328;7.932;2022-10-17T13:00:54;100260.22;;;25.23;48.02
32083;BME280;18597;48.328;7.932;2022-10-17T13:03:27;100259.59;;;25.08;49.03
32083;BME280;18597;48.328;7.932;2022-10-17T13:05:58;100256.00;;;25.01;49.31
32083;BME280;18597;48.328;7.932;2022-10-17T13:08:43;100255.16;;;25.00;48.81
32083;BME280;18597;48.328;7.932;2022-10-17T13:11:12;100251.41;;;25.08;51.41
32083;BME280;18597;48.328;7.932;2022-10-17T13:13:45;100240.69;;;25.06;51.29
32083;BME280;18597;48.328;7.932;2022-10-17T13:16:36;100245.09;;;25.14;51.04
32083;BME280;18597;48.328;7.932;2022-10-17T13:19:12;100244.69;;;25.17;52.08
32083;BME280;18597;48.328;7.932;2022-10-17T13:21:38;100244.88;;;25.15;50.54
32083;BME280;18597;48.328;7.932;2022-10-17T13:24:39;100247.41;;;25.17;51.05
32083;BME280;18597;48.328;7.932;2022-10-17T13:27:25;100236.25;;;25.12;51.44
32083;BME280;18597;48.328;7.932;2022-10-17T13:29:52;100232.47;;;25.06;50.97
32083;BME280;18597;48.328;7.932;2022-10-17T13:32:22;100227.63;;;25.08;51.34
32083;BME280;18597;48.328;7.932;2022-10-17T13:35:11;100229.75;;;25.06;53.48
32083;BME280;18597;48.328;7.932;2022-10-17T13:37:40;100232.47;;;25.06;54.09
32083;BME280;18597;48.328;7.932;2022-10-17T13:40:16;100220.88;;;24.98;56.10
32083;BME280;18597;48.328;7.932;2022-10-17T13:42:42;100222.78;;;24.97;55.03
32083;BME280;18597;48.328;7.932;2022-10-17T13:45:33;100232.88;;;24.90;56.58
32083;BME280;18597;48.328;7.932;2022-10-17T13:48:05;100230.97;;;24.77;54.94
32083;BME280;18597;48.328;7.932;2022-10-17T13:50:37;100231.38;;;24.68;54.62
32083;BME280;18597;48.328;7.932;2022-10-17T13:56:25;100233.25;;;24.60;51.73
32083;BME280;18597;48.328;7.932;2022-10-17T13:58:56;100230.13;;;24.57;52.55
32083;BME280;18597;48.328;7.932;2022-10-17T14:01:26;100222.75;;;24.51;51.70
32083;BME280;18597;48.328;7.932;2022-10-17T14:03:53;100217.09;;;24.72;57.09
32083;BME280;18597;48.328;7.932;2022-10-17T14:06:22;100215.81;;;24.61;61.55
32083;BME280;18597;48.328;7.932;2022-10-17T14:09:21;100219.56;;;24.47;63.08
32083;BME280;18597;48.328;7.932;2022-10-17T14:12:02;100217.69;;;24.41;62.13